sensor_id;sensor_type;location;lat;lon;timestamp;temperature;humidity
82126;DHT22;71668;51.400;6.758;2023-12-28T01:36:19;11.60;99.90
82126;DHT22;71668;51.400;6.758;2023-12-28T01:38:46;11.30;99.90
82126;DHT22;71668;51.400;6.758;2023-12-28T01:41:14;11.00;99.90
82126;DHT22;71668;51.400;6.758;2023-12-28T01:43:42;10.90;99.90
82126;DHT22;71668;51.400;6.758;2023-12-28T01:46:19;10.70;99.90
82126;DHT22;71668;51.400;6.758;2023-12-28T01:48:49;10.70;99.90
82126;DHT22;71668;51.400;6.758;2023-12-28T01:51:19;10.70;99.90
82126;DHT22;71668;51.400;6.758;2023-12-28T01:53:48;10.70;99.90
82126;DHT22;71668;51.400;6.758;2023-12-28T01:56:17;10.60;99.90
82126;DHT22;71668;51.400;6.758;2023-12-28T01:58:46;10.60;99.90
82126;DHT22;71668;51.400;6.758;2023-12-28T02:01:13;10.60;99.90
82126;DHT22;71668;51.400;6.758;2023-12-28T02:03:40;10.70;99.90
82126;DHT22;71668;51.400;6.758;2023-12-28T02:06:07;10.70;99.90
82126;DHT22;71668;51.400;6.758;2023-12-28T02:08:35;10.70;99.90
82126;DHT22;71668;51.400;6.758;2023-12-28T02:11:02;10.70;99.90
82126;DHT22;71668;51.400;6.758;2023-12-28T02:13:29;10.70;99.90
82126;DHT22;71668;51.400;6.758;2023-12-28T02:16:06;10.70;99.90
82126;DHT22;71668;51.400;6.758;2023-12-28T02:18:43;10.70;99.90
82126;DHT22;71668;51.400;6.758;2023-12-28T02:21:12;10.70;99.90
82126;DHT22;71668;51.400;6.758;2023-12-28T02:23:39;10.70;99.90
82126;DHT22;71668;51.400;6.758;2023-12-28T02:26:12;10.70;99.90
82126;DHT22;71668;51.400;6.758;2023-12-28T02:28:39;10.70;99.90
82126;DHT22;71668;51.400;6.758;2023-12-28T02:31:07;10.70;99.90
82126;DHT22;71668;51.400;6.758;2023-12-28T02:33:48;10.70;99.90
82126;DHT22;71668;51.400;6.758;2023-12-28T02:36:18;10.70;99.90
82126;DHT22;71668;51.400;6.758;2023-12-28T02:38:49;10.70;99.90
82126;DHT22;71668;51.400;6.758;2023-12-28T02:41:17;10.70;99.90
82126;DHT22;71668;51.400;6.758;2023-12-28T02:43:47;10.70;99.90
82126;DHT22;71668;51.400;6.758;2023-12-28T02:46:14;10.70;99.90
82126;DHT22;71668;51.400;6.758;2023-12-28T02:48:42;10.70;99.90
82126;DHT22;71668;51.400;6.758;2023-12-28T02:51:09;10.60;99.90
82126;DHT22;71668;51.400;6.758;2023-12-28T02:53:35;10.70;99.90
82126;DHT22;71668;51.400;6.758;2023-12-28T02:56:02;10.70;99.90
82126;DHT22;71668;51.400;6.758;2023-12-28T02:58:30;10.70;99.90
82126;DHT22;71668;51.400;6.758;2023-12-28T03:00:56;10.70;99.90
82126;DHT22;71668;51.400;6.758;2023-12-28T03:03:23;10.60;99.90
82126;DHT22;71668;51.400;6.758;2023-12-28T03:05:50;10.60;99.90
82126;DHT22;71668;51.400;6.758;2023-12-28T03:08:17;10.60;99.90
82126;DHT22;71668;51.400;6.758;2023-12-28T03:10:44;10.70;99.90
82126;DHT22;71668;51.400;6.758;2023-12-28T03:13:11;10.70;99.90
82126;DHT22;71668;51.400;6.758;2023-12-28T03:15:38;10.70;99.90
82126;DHT22;71668;51.400;6.758;2023-12-28T03:18:05;10.70;99.90
82126;DHT22;71668;51.400;6.758;2023-12-28T03:20:32;10.80;99.90
82126;DHT22;71668;51.400;6.758;2023-12-28T03:22:59;10.70;99.90
82126;DHT22;71668;51.400;6.758;2023-12-28T03:25:26;10.70;99.90
82126;DHT22;71668;51.400;6.758;2023-12-28T03:27:52;10.70;99.90
82126;DHT22;71668;51.400;6.758;2023-12-28T03:30:21;10.70;99.90
82126;DHT22;71668;51.400;6.758;2023-12-28T03:32:48;10.70;99.90
82126;DHT22;71668;51.400;6.758;2023-12-28T03:35:16;10.80;99.90
82126;DHT22;71668;51.400;6.758;2023-12-28T03:37:44;10.80;99.90
82126;DHT22;71668;51.400;6.758;2023-12-28T03:40:11;10.80;99.90
82126;DHT22;71668;51.400;6.758;2023-12-28T03:42:38;10.80;99.90
82126;DHT22;71668;51.400;6.758;2023-12-28T03:45:06;10.80;99.90
82126;DHT22;71668;51.400;6.758;2023-12-28T03:47:33;10.80;99.90
82126;DHT22;71668;51.400;6.758;2023-12-28T03:49:59;10.80;99.90
82126;DHT22;71668;51.400;6.758;2023-12-28T03:52:26;10.80;99.90
82126;DHT22;71668;51.400;6.758;2023-12-28T03:54:56;10.80;99.90
82126;DHT22;71668;51.400;6.758;2023-12-28T03:57:23;10.80;99.90
82126;DHT22;71668;51.400;6.758;2023-12-28T03:59:51;10.80;99.90
82126;DHT22;71668;51.400;6.758;2023-12-28T04:02:20;10.80;99.90
82126;DHT22;71668;51.400;6.758;2023-12-28T04:04:47;10.80;99.90
82126;DHT22;71668;51.400;6.758;2023-12-28T04:07:14;10.80;99.90
82126;DHT22;71668;51.400;6.758;2023-12-28T04:09:42;10.80;99.90
82126;DHT22;71668;51.400;6.758;2023-12-28T04:12:09;10.80;99.90
82126;DHT22;71668;51.400;6.758;2023-12-28T04:14:36;10.80;99.90
82126;DHT22;71668;51.400;6.758;2023-12-28T04:17:03;10.80;99.90
82126;DHT22;71668;51.400;6.758;2023-12-28T04:19:30;10.80;99.90
82126;DHT22;71668;51.400;6.758;2023-12-28T04:21:59;10.80;99.90
82126;DHT22;71668;51.400;6.758;2023-12-28T04:24:26;10.80;99.90
82126;DHT22;71668;51.400;6.758;2023-12-28T04:26:53;10.80;99.90
82126;DHT22;71668;51.400;6.758;2023-12-28T04:29:20;10.80;99.90
82126;DHT22;71668;51.400;6.758;2023-12-28T04:31:47;10.80;99.90
82126;DHT22;71668;51.400;6.758;2023-12-28T04:34:14;10.80;99.90
82126;DHT22;71668;51.400;6.758;2023-12-28T04:36:44;10.80;99.90
82126;DHT22;71668;51.400;6.758;2023-12-28T04:39:15;10.80;99.90
82126;DHT22;71668;51.400;6.758;2023-12-28T04:41:42;10.80;99.90
82126;DHT22;71668;51.400;6.758;2023-12-28T04:44:09;10.80;99.90
82126;DHT22;71668;51.400;6.758;2023-12-28T04:46:38;10.90;99.90
82126;DHT22;71668;51.400;6.758;2023-12-28T04:49:10;10.90;99.90
82126;DHT22;71668;51.400;6.758;2023-12-28T04:51:44;10.90;99.90
82126;DHT22;71668;51.400;6.758;2023-12-28T04:54:11;10.90;99.90
82126;DHT22;71668;51.400;6.758;2023-12-28T04:56:38;10.90;99.90
82126;DHT22;71668;51.400;6.758;2023-12-28T04:59:05;10.90;99.90
82126;DHT22;71668;51.400;6.758;2023-12-28T05:01:32;10.90;99.90
82126;DHT22;71668;51.400;6.758;2023-12-28T05:03:59;10.90;99.90
82126;DHT22;71668;51.400;6.758;2023-12-28T05:06:28;10.90;99.90
82126;DHT22;71668;51.400;6.758;2023-12-28T05:08:55;10.90;99.90
82126;DHT22;71668;51.400;6.758;2023-12-28T05:11:22;10.90;99.90
82126;DHT22;71668;51.400;6.758;2023-12-28T05:13:49;10.90;99.90
82126;DHT22;71668;51.400;6.758;2023-12-28T05:16:16;10.90;99.90
82126;DHT22;71668;51.400;6.758;2023-12-28T05:18:42;10.90;99.90
82126;DHT22;71668;51.400;6.758;2023-12-28T05:21:09;10.90;99.90
82126;DHT22;71668;51.400;6.758;2023-12-28T05:23:36;10.90;99.90
82126;DHT22;71668;51.400;6.758;2023-12-28T05:26:03;10.90;99.90
82126;DHT22;71668;51.400;6.758;2023-12-28T05:28:30;10.90;99.90
82126;DHT22;71668;51.400;6.758;2023-12-28T05:30:57;10.90;99.90
82126;DHT22;71668;51.400;6.758;2023-12-28T05:33:25;10.90;99.90
82126;DHT22;71668;51.400;6.758;2023-12-28T05:35:52;10.90;99.90
82126;DHT22;71668;51.400;6.758;2023-12-28T05:38:19;11.00;99.90
82126;DHT22;71668;51.400;6.758;2023-12-28T05:40:46;11.00;99.90
82126;DHT22;71668;51.400;6.758;2023-12-28T05:43:13;11.00;99.90
82126;DHT22;71668;51.400;6.758;2023-12-28T05:45:40;11.00;99.90
82126;DHT22;71668;51.400;6.758;2023-12-28T05:48:07;11.00;99.90
82126;DHT22;71668;51.400;6.758;2023-12-28T05:50:34;11.00;99.90
82126;DHT22;71668;51.400;6.758;2023-12-28T05:53:01;11.00;99.90
82126;DHT22;71668;51.400;6.758;2023-12-28T05:55:29;11.00;99.90
82126;DHT22;71668;51.400;6.758;2023-12-28T05:57:56;11.00;99.90
82126;DHT22;71668;51.400;6.758;2023-12-28T06:00:23;11.00;99.90
82126;DHT22;71668;51.400;6.758;2023-12-28T06:02:50;11.00;99.90
82126;DHT22;71668;51.400;6.758;2023-12-28T06:05:18;11.10;99.90
82126;DHT22;71668;51.400;6.758;2023-12-28T06:07:45;11.10;99.90
82126;DHT22;71668;51.400;6.758;2023-12-28T06:10:11;11.10;99.90
82126;DHT22;71668;51.400;6.758;2023-12-28T06:12:38;11.10;99.90
82126;DHT22;71668;51.400;6.758;2023-12-28T06:15:06;11.10;99.90
82126;DHT22;71668;51.400;6.758;2023-12-28T06:17:32;11.00;99.90
82126;DHT22;71668;51.400;6.758;2023-12-28T06:20:01;11.00;99.90
82126;DHT22;71668;51.400;6.758;2023-12-28T06:22:28;11.00;99.90
82126;DHT22;71668;51.400;6.758;2023-12-28T06:24:56;11.00;99.90
82126;DHT22;71668;51.400;6.758;2023-12-28T06:27:23;11.00;99.90
82126;DHT22;71668;51.400;6.758;2023-12-28T06:29:50;11.00;99.90
82126;DHT22;71668;51.400;6.758;2023-12-28T06:32:17;11.00;99.90
82126;DHT22;71668;51.400;6.758;2023-12-28T06:34:43;11.00;99.90
82126;DHT22;71668;51.400;6.758;2023-12-28T06:37:10;11.00;99.90
82126;DHT22;71668;51.400;6.758;2023-12-28T06:39:38;11.00;99.90
82126;DHT22;71668;51.400;6.758;2023-12-28T06:42:05;11.00;99.90
82126;DHT22;71668;51.400;6.758;2023-12-28T06:44:32;11.00;99.90
82126;DHT22;71668;51.400;6.758;2023-12-28T06:46:59;11.00;99.90
82126;DHT22;71668;51.400;6.758;2023-12-28T06:49:26;11.00;99.90
82126;DHT22;71668;51.400;6.758;2023-12-28T06:51:53;11.00;99.90
82126;DHT22;71668;51.400;6.758;2023-12-28T06:54:19;11.00;99.90
82126;DHT22;71668;51.400;6.758;2023-12-28T06:56:46;11.00;99.90
82126;DHT22;71668;51.400;6.758;2023-12-28T06:59:13;11.00;99.90
82126;DHT22;71668;51.400;6.758;2023-12-28T07:01:42;11.00;99.90
82126;DHT22;71668;51.400;6.758;2023-12-28T07:04:08;11.00;99.90
82126;DHT22;71668;51.400;6.758;2023-12-28T07:06:35;11.00;99.90
82126;DHT22;71668;51.400;6.758;2023-12-28T07:09:02;11.10;99.90
82126;DHT22;71668;51.400;6.758;2023-12-28T07:11:29;11.10;99.90
82126;DHT22;71668;51.400;6.758;2023-12-28T07:13:56;11.10;99.90
82126;DHT22;71668;51.400;6.758;2023-12-28T07:16:23;11.00;99.90
82126;DHT22;71668;51.400;6.758;2023-12-28T07:18:49;11.10;99.90
82126;DHT22;71668;51.400;6.758;2023-12-28T07:21:16;11.10;99.90
82126;DHT22;71668;51.400;6.758;2023-12-28T07:23:44;11.10;99.90
82126;DHT22;71668;51.400;6.758;2023-12-28T07:26:16;11.10;99.90
82126;DHT22;71668;51.400;6.758;2023-12-28T07:28:42;11.10;99.90
82126;DHT22;71668;51.400;6.758;2023-12-28T07:31:11;11.10;99.90
82126;DHT22;71668;51.400;6.758;2023-12-28T07:33:48;11.10;99.90
82126;DHT22;71668;51.400;6.758;2023-12-28T07:36:15;11.10;99.90
82126;DHT22;71668;51.400;6.758;2023-12-28T07:38:42;11.10;99.90
82126;DHT22;71668;51.400;6.758;2023-12-28T07:41:10;11.10;99.90
82126;DHT22;71668;51.400;6.758;2023-12-28T07:43:37;11.10;99.90
82126;DHT22;71668;51.400;6.758;2023-12-28T07:46:04;11.20;99.90
82126;DHT22;71668;51.400;6.758;2023-12-28T07:48:31;11.20;99.90
82126;DHT22;71668;51.400;6.758;2023-12-28T07:50:58;11.20;99.90
82126;DHT22;71668;51.400;6.758;2023-12-28T07:53:25;11.20;99.90
82126;DHT22;71668;51.400;6.758;2023-12-28T07:55:52;11.20;99.90
82126;DHT22;71668;51.400;6.758;2023-12-28T07:58:19;11.20;99.90
82126;DHT22;71668;51.400;6.758;2023-12-28T08:00:45;11.20;99.90
82126;DHT22;71668;51.400;6.758;2023-12-28T08:03:12;11.20;99.90
82126;DHT22;71668;51.400;6.758;2023-12-28T08:05:42;11.20;99.90
82126;DHT22;71668;51.400;6.758;2023-12-28T08:08:09;11.20;99.90
82126;DHT22;71668;51.400;6.758;2023-12-28T08:10:35;11.20;99.90
82126;DHT22;71668;51.400;6.758;2023-12-28T08:13:02;11.20;99.90
82126;DHT22;71668;51.400;6.758;2023-12-28T08:15:29;11.30;99.90
82126;DHT22;71668;51.400;6.758;2023-12-28T08:17:56;11.20;99.90
82126;DHT22;71668;51.400;6.758;2023-12-28T08:20:24;11.20;99.90
82126;DHT22;71668;51.400;6.758;2023-12-28T08:22:50;11.20;99.90
82126;DHT22;71668;51.400;6.758;2023-12-28T08:25:36;11.30;99.90
82126;DHT22;71668;51.400;6.758;2023-12-28T08:28:03;11.30;99.90
82126;DHT22;71668;51.400;6.758;2023-12-28T08:30:30;11.30;99.90
82126;DHT22;71668;51.400;6.758;2023-12-28T08:32:57;11.40;99.90
82126;DHT22;71668;51.400;6.758;2023-12-28T08:35:24;11.40;99.90
82126;DHT22;71668;51.400;6.758;2023-12-28T08:37:50;11.40;99.90
82126;DHT22;71668;51.400;6.758;2023-12-28T08:40:17;11.40;99.90
82126;DHT22;71668;51.400;6.758;2023-12-28T08:42:44;11.40;99.90
82126;DHT22;71668;51.400;6.758;2023-12-28T08:45:12;11.40;99.90
82126;DHT22;71668;51.400;6.758;2023-12-28T08:47:38;11.40;99.90
82126;DHT22;71668;51.400;6.758;2023-12-28T08:50:05;11.40;99.90
82126;DHT22;71668;51.400;6.758;2023-12-28T08:52:32;11.40;99.90
82126;DHT22;71668;51.400;6.758;2023-12-28T08:54:59;11.40;99.90
82126;DHT22;71668;51.400;6.758;2023-12-28T08:57:28;11.40;99.90
82126;DHT22;71668;51.400;6.758;2023-12-28T09:00:08;11.40;99.90
82126;DHT22;71668;51.400;6.758;2023-12-28T09:02:36;11.50;99.90
82126;DHT22;71668;51.400;6.758;2023-12-28T09:05:03;11.50;99.90
82126;DHT22;71668;51.400;6.758;2023-12-28T09:07:30;11.50;99.90
82126;DHT22;71668;51.400;6.758;2023-12-28T09:09:56;11.40;99.90
82126;DHT22;71668;51.400;6.758;2023-12-28T09:12:23;11.50;99.90
82126;DHT22;71668;51.400;6.758;2023-12-28T09:14:50;11.50;99.90
82126;DHT22;71668;51.400;6.758;2023-12-28T09:17:22;11.50;99.90
82126;DHT22;71668;51.400;6.758;2023-12-28T09:19:49;11.50;99.90
82126;DHT22;71668;51.400;6.758;2023-12-28T09:22:17;11.50;99.90
82126;DHT22;71668;51.400;6.758;2023-12-28T09:24:44;11.60;99.90
82126;DHT22;71668;51.400;6.758;2023-12-28T09:27:10;11.60;99.90
82126;DHT22;71668;51.400;6.758;2023-12-28T09:29:37;11.60;99.90
82126;DHT22;71668;51.400;6.758;2023-12-28T09:32:04;11.60;99.90
82126;DHT22;71668;51.400;6.758;2023-12-28T09:34:31;11.70;99.90
82126;DHT22;71668;51.400;6.758;2023-12-28T09:36:59;11.70;99.90
82126;DHT22;71668;51.400;6.758;2023-12-28T09:39:25;11.90;99.90
82126;DHT22;71668;51.400;6.758;2023-12-28T09:41:59;12.80;99.90
82126;DHT22;71668;51.400;6.758;2023-12-28T09:44:30;13.70;99.90
82126;DHT22;71668;51.400;6.758;2023-12-28T09:46:58;14.10;99.90
82126;DHT22;71668;51.400;6.758;2023-12-28T09:49:24;14.40;99.90
82126;DHT22;71668;51.400;6.758;2023-12-28T09:51:52;14.60;99.90
82126;DHT22;71668;51.400;6.758;2023-12-28T09:54:18;14.90;99.90
82126;DHT22;71668;51.400;6.758;2023-12-28T09:56:46;14.20;98.90
82126;DHT22;71668;51.400;6.758;2023-12-28T09:59:14;13.60;99.90
82126;DHT22;71668;51.400;6.758;2023-12-28T10:01:43;13.20;99.90
82126;DHT22;71668;51.400;6.758;2023-12-28T10:04:13;12.90;99.90
82126;DHT22;71668;51.400;6.758;2023-12-28T10:06:40;12.70;99.90
82126;DHT22;71668;51.400;6.758;2023-12-28T10:09:07;12.60;99.90
82126;DHT22;71668;51.400;6.758;2023-12-28T10:11:34;12.60;99.90
82126;DHT22;71668;51.400;6.758;2023-12-28T10:14:01;12.50;99.90
82126;DHT22;71668;51.400;6.758;2023-12-28T10:16:28;12.50;99.90
82126;DHT22;71668;51.400;6.758;2023-12-28T10:18:56;12.40;99.90
82126;DHT22;71668;51.400;6.758;2023-12-28T10:21:24;12.50;99.90
82126;DHT22;71668;51.400;6.758;2023-12-28T10:23:51;12.40;99.90
82126;DHT22;71668;51.400;6.758;2023-12-28T10:26:18;12.30;99.90
82126;DHT22;71668;51.400;6.758;2023-12-28T10:28:45;12.30;99.90
82126;DHT22;71668;51.400;6.758;2023-12-28T10:31:14;12.30;99.90
82126;DHT22;71668;51.400;6.758;2023-12-28T10:33:42;12.20;99.90
82126;DHT22;71668;51.400;6.758;2023-12-28T10:36:14;12.20;99.90
82126;DHT22;71668;51.400;6.758;2023-12-28T10:38:43;12.20;99.90
82126;DHT22;71668;51.400;6.758;2023-12-28T10:41:13;12.20;99.90
82126;DHT22;71668;51.400;6.758;2023-12-28T10:43:49;12.20;99.90
82126;DHT22;71668;51.400;6.758;2023-12-28T10:46:25;12.20;99.90
82126;DHT22;71668;51.400;6.758;2023-12-28T10:49:10;12.20;99.90
82126;DHT22;71668;51.400;6.758;2023-12-28T10:51:42;12.20;99.90
82126;DHT22;71668;51.400;6.758;2023-12-28T10:54:47;12.20;99.90
82126;DHT22;71668;51.400;6.758;2023-12-28T10:57:29;12.20;99.90
82126;DHT22;71668;51.400;6.758;2023-12-28T11:00:11;12.20;99.90
82126;DHT22;71668;51.400;6.758;2023-12-28T11:02:45;12.20;99.90
82126;DHT22;71668;51.400;6.758;2023-12-28T11:05:13;12.30;99.90
82126;DHT22;71668;51.400;6.758;2023-12-28T11:07:41;12.30;99.90
82126;DHT22;71668;51.400;6.758;2023-12-28T11:10:09;12.30;99.90
82126;DHT22;71668;51.400;6.758;2023-12-28T11:12:37;12.30;99.90
82126;DHT22;71668;51.400;6.758;2023-12-28T11:15:06;12.40;99.90
82126;DHT22;71668;51.400;6.758;2023-12-28T11:17:37;12.40;99.90
82126;DHT22;71668;51.400;6.758;2023-12-28T11:20:05;12.40;99.90
82126;DHT22;71668;51.400;6.758;2023-12-28T11:22:33;12.60;99.90
82126;DHT22;71668;51.400;6.758;2023-12-28T11:25:00;12.60;99.90
82126;DHT22;71668;51.400;6.758;2023-12-28T11:27:34;12.60;99.90
82126;DHT22;71668;51.400;6.758;2023-12-28T11:30:05;12.60;99.90
82126;DHT22;71668;51.400;6.758;2023-12-28T11:32:33;12.60;99.90
82126;DHT22;71668;51.400;6.758;2023-12-28T11:35:00;12.60;99.90
82126;DHT22;71668;51.400;6.758;2023-12-28T11:37:29;12.60;99.90
82126;DHT22;71668;51.400;6.758;2023-12-28T11:39:56;12.60;99.90
82126;DHT22;71668;51.400;6.758;2023-12-28T11:42:25;12.60;99.90
82126;DHT22;71668;51.400;6.758;2023-12-28T11:44:55;12.60;99.90
82126;DHT22;71668;51.400;6.758;2023-12-28T11:47:24;12.60;99.90
82126;DHT22;71668;51.400;6.758;2023-12-28T11:49:51;12.60;99.90
82126;DHT22;71668;51.400;6.758;2023-12-28T11:52:27;12.70;99.90
82126;DHT22;71668;51.400;6.758;2023-12-28T11:54:55;12.70;99.90
82126;DHT22;71668;51.400;6.758;2023-12-28T11:57:22;12.70;99.90
82126;DHT22;71668;51.400;6.758;2023-12-28T11:59:55;12.70;99.90
82126;DHT22;71668;51.400;6.758;2023-12-28T12:02:22;12.70;99.90
82126;DHT22;71668;51.400;6.758;2023-12-28T12:04:51;12.70;99.90
82126;DHT22;71668;51.400;6.758;2023-12-28T12:07:21;12.70;99.90
82126;DHT22;71668;51.400;6.758;2023-12-28T12:09:48;12.70;99.90
82126;DHT22;71668;51.400;6.758;2023-12-28T12:12:16;12.70;99.90
82126;DHT22;71668;51.400;6.758;2023-12-28T12:14:43;12.70;99.90
82126;DHT22;71668;51.400;6.758;2023-12-28T12:17:10;12.70;99.90
82126;DHT22;71668;51.400;6.758;2023-12-28T12:19:38;12.70;99.90
82126;DHT22;71668;51.400;6.758;2023-12-28T12:22:05;12.80;99.90
82126;DHT22;71668;51.400;6.758;2023-12-28T12:24:33;12.80;99.90
82126;DHT22;71668;51.400;6.758;2023-12-28T12:27:01;12.80;99.90
82126;DHT22;71668;51.400;6.758;2023-12-28T12:29:29;12.90;99.90
82126;DHT22;71668;51.400;6.758;2023-12-28T12:31:57;12.80;99.90
82126;DHT22;71668;51.400;6.758;2023-12-28T12:34:24;12.90;99.90
82126;DHT22;71668;51.400;6.758;2023-12-28T12:36:52;12.90;99.90
82126;DHT22;71668;51.400;6.758;2023-12-28T12:39:24;12.90;99.90
82126;DHT22;71668;51.400;6.758;2023-12-28T12:41:52;12.90;99.90
82126;DHT22;71668;51.400;6.758;2023-12-28T12:44:19;12.90;99.90
82126;DHT22;71668;51.400;6.758;2023-12-28T12:46:47;12.90;99.90
82126;DHT22;71668;51.400;6.758;2023-12-28T12:49:16;12.80;99.80
82126;DHT22;71668;51.400;6.758;2023-12-28T12:51:45;12.90;99.80
82126;DHT22;71668;51.400;6.758;2023-12-28T12:54:12;12.90;99.70
82126;DHT22;71668;51.400;6.758;2023-12-28T12:56:39;12.90;99.40
82126;DHT22;71668;51.400;6.758;2023-12-28T12:59:12;12.90;99.30
82126;DHT22;71668;51.400;6.758;2023-12-28T13:01:45;12.90;99.30
82126;DHT22;71668;51.400;6.758;2023-12-28T13:04:18;12.90;99.10
82126;DHT22;71668;51.400;6.758;2023-12-28T13:06:46;12.90;99.00
82126;DHT22;71668;51.400;6.758;2023-12-28T13:09:12;13.00;98.50
82126;DHT22;71668;51.400;6.758;2023-12-28T13:11:39;13.00;98.40
82126;DHT22;71668;51.400;6.758;2023-12-28T13:14:06;13.00;98.50
82126;DHT22;71668;51.400;6.758;2023-12-28T13:16:33;13.00;99.90
82126;DHT22;71668;51.400;6.758;2023-12-28T13:19:00;14.00;99.90
82126;DHT22;71668;51.400;6.758;2023-12-28T13:21:27;15.00;99.90
82126;DHT22;71668;51.400;6.758;2023-12-28T13:23:54;15.40;99.90
82126;DHT22;71668;51.400;6.758;2023-12-28T13:26:21;15.20;92.10
82126;DHT22;71668;51.400;6.758;2023-12-28T13:28:47;14.60;90.90
82126;DHT22;71668;51.400;6.758;2023-12-28T13:31:14;14.20;91.60
82126;DHT22;71668;51.400;6.758;2023-12-28T13:33:41;13.90;92.70
82126;DHT22;71668;51.400;6.758;2023-12-28T13:36:11;13.60;93.70
82126;DHT22;71668;51.400;6.758;2023-12-28T13:38:38;13.50;93.70
82126;DHT22;71668;51.400;6.758;2023-12-28T13:41:05;13.30;94.70
82126;DHT22;71668;51.400;6.758;2023-12-28T13:43:32;13.20;95.30
82126;DHT22;71668;51.400;6.758;2023-12-28T13:46:01;13.10;96.30
82126;DHT22;71668;51.400;6.758;2023-12-28T13:48:30;13.10;96.60
82126;DHT22;71668;51.400;6.758;2023-12-28T13:50:58;13.00;96.80
82126;DHT22;71668;51.400;6.758;2023-12-28T13:53:24;12.90;96.60
82126;DHT22;71668;51.400;6.758;2023-12-28T13:55:51;12.90;96.60
82126;DHT22;71668;51.400;6.758;2023-12-28T13:58:18;12.90;96.90
82126;DHT22;71668;51.400;6.758;2023-12-28T14:00:45;12.80;97.20
82126;DHT22;71668;51.400;6.758;2023-12-28T14:03:12;12.90;97.00
82126;DHT22;71668;51.400;6.758;2023-12-28T14:05:39;12.80;97.40
82126;DHT22;71668;51.400;6.758;2023-12-28T14:08:06;12.80;97.60
82126;DHT22;71668;51.400;6.758;2023-12-28T14:10:33;12.80;97.60
82126;DHT22;71668;51.400;6.758;2023-12-28T14:13:00;12.70;97.90
82126;DHT22;71668;51.400;6.758;2023-12-28T14:15:27;12.70;98.40
82126;DHT22;71668;51.400;6.758;2023-12-28T14:17:55;12.70;98.70
82126;DHT22;71668;51.400;6.758;2023-12-28T14:20:22;12.70;98.70
82126;DHT22;71668;51.400;6.758;2023-12-28T14:22:49;12.70;98.80
82126;DHT22;71668;51.400;6.758;2023-12-28T14:25:16;12.60;98.90
82126;DHT22;71668;51.400;6.758;2023-12-28T14:27:43;12.60;99.00
82126;DHT22;71668;51.400;6.758;2023-12-28T14:30:10;12.60;99.00
82126;DHT22;71668;51.400;6.758;2023-12-28T14:32:38;12.60;99.30
82126;DHT22;71668;51.400;6.758;2023-12-28T14:35:06;12.60;99.30
82126;DHT22;71668;51.400;6.758;2023-12-28T14:37:33;12.60;99.00
82126;DHT22;71668;51.400;6.758;2023-12-28T14:40:00;12.50;99.20
82126;DHT22;71668;51.400;6.758;2023-12-28T14:42:33;12.50;99.10
82126;DHT22;71668;51.400;6.758;2023-12-28T14:45:00;12.50;98.80
82126;DHT22;71668;51.400;6.758;2023-12-28T14:47:28;12.50;98.90
82126;DHT22;71668;51.400;6.758;2023-12-28T14:49:55;12.40;98.90
82126;DHT22;71668;51.400;6.758;2023-12-28T14:52:25;12.40;99.00
82126;DHT22;71668;51.400;6.758;2023-12-28T14:54:52;12.40;98.90
82126;DHT22;71668;51.400;6.758;2023-12-28T14:57:22;12.40;99.00
82126;DHT22;71668;51.400;6.758;2023-12-28T14:59:49;12.40;98.80
82126;DHT22;71668;51.400;6.758;2023-12-28T15:02:16;12.40;98.90
82126;DHT22;71668;51.400;6.758;2023-12-28T15:04:42;12.40;99.00
82126;DHT22;71668;51.400;6.758;2023-12-28T15:07:10;12.30;99.00
82126;DHT22;71668;51.400;6.758;2023-12-28T15:09:37;12.30;99.20
82126;DHT22;71668;51.400;6.758;2023-12-28T15:12:04;12.30;99.20
82126;DHT22;71668;51.400;6.758;2023-12-28T15:14:32;12.30;99.10
82126;DHT22;71668;51.400;6.758;2023-12-28T15:16:59;12.30;99.10
82126;DHT22;71668;51.400;6.758;2023-12-28T15:19:26;12.30;98.90
82126;DHT22;71668;51.400;6.758;2023-12-28T15:21:53;12.30;98.80
82126;DHT22;71668;51.400;6.758;2023-12-28T15:24:21;12.20;99.00
82126;DHT22;71668;51.400;6.758;2023-12-28T15:26:48;12.20;99.50
82126;DHT22;71668;51.400;6.758;2023-12-28T15:29:15;12.20;99.70
82126;DHT22;71668;51.400;6.758;2023-12-28T15:31:42;12.10;99.60
82126;DHT22;71668;51.400;6.758;2023-12-28T15:34:10;12.10;99.80
82126;DHT22;71668;51.400;6.758;2023-12-28T15:36:37;12.10;99.90
82126;DHT22;71668;51.400;6.758;2023-12-28T15:39:04;12.10;99.90
82126;DHT22;71668;51.400;6.758;2023-12-28T15:41:41;12.10;99.90
82126;DHT22;71668;51.400;6.758;2023-12-28T15:44:08;12.10;99.90
82126;DHT22;71668;51.400;6.758;2023-12-28T15:46:38;12.10;99.90
82126;DHT22;71668;51.400;6.758;2023-12-28T15:49:05;12.00;99.90
82126;DHT22;71668;51.400;6.758;2023-12-28T15:51:35;12.00;99.90
82126;DHT22;71668;51.400;6.758;2023-12-28T15:54:05;12.00;99.90
82126;DHT22;71668;51.400;6.758;2023-12-28T15:56:32;12.00;99.90
82126;DHT22;71668;51.400;6.758;2023-12-28T15:58:59;12.00;99.90
82126;DHT22;71668;51.400;6.758;2023-12-28T16:01:27;12.00;99.90
82126;DHT22;71668;51.400;6.758;2023-12-28T16:03:54;12.00;99.90
82126;DHT22;71668;51.400;6.758;2023-12-28T16:06:21;12.00;99.90
82126;DHT22;71668;51.400;6.758;2023-12-28T16:08:48;11.90;99.90
82126;DHT22;71668;51.400;6.758;2023-12-28T16:11:19;11.90;99.90
82126;DHT22;71668;51.400;6.758;2023-12-28T16:13:47;11.90;99.90
82126;DHT22;71668;51.400;6.758;2023-12-28T16:16:16;11.90;99.90
82126;DHT22;71668;51.400;6.758;2023-12-28T16:18:43;11.90;99.90
82126;DHT22;71668;51.400;6.758;2023-12-28T16:21:11;11.90;99.90
82126;DHT22;71668;51.400;6.758;2023-12-28T16:23:41;11.90;99.90
82126;DHT22;71668;51.400;6.758;2023-12-28T16:26:08;11.80;99.90
82126;DHT22;71668;51.400;6.758;2023-12-28T16:28:35;11.80;99.90
82126;DHT22;71668;51.400;6.758;2023-12-28T16:31:03;12.00;99.90
82126;DHT22;71668;51.400;6.758;2023-12-28T16:33:31;12.00;99.90
82126;DHT22;71668;51.400;6.758;2023-12-28T16:35:58;12.00;99.90
82126;DHT22;71668;51.400;6.758;2023-12-28T16:38:24;12.00;99.90
82126;DHT22;71668;51.400;6.758;2023-12-28T16:40:51;11.90;99.90
82126;DHT22;71668;51.400;6.758;2023-12-28T16:43:18;11.90;99.90
82126;DHT22;71668;51.400;6.758;2023-12-28T16:45:45;11.90;99.90
82126;DHT22;71668;51.400;6.758;2023-12-28T16:48:12;11.90;99.90
82126;DHT22;71668;51.400;6.758;2023-12-28T16:50:39;11.80;99.90
82126;DHT22;71668;51.400;6.758;2023-12-28T16:53:06;11.80;99.90
82126;DHT22;71668;51.400;6.758;2023-12-28T16:55:39;11.80;99.90
82126;DHT22;71668;51.400;6.758;2023-12-28T16:58:06;11.80;99.90
82126;DHT22;71668;51.400;6.758;2023-12-28T17:00:33;11.80;99.90
82126;DHT22;71668;51.400;6.758;2023-12-28T17:03:07;11.80;99.90
82126;DHT22;71668;51.400;6.758;2023-12-28T17:05:34;11.80;99.90
82126;DHT22;71668;51.400;6.758;2023-12-28T17:08:01;11.80;99.90
82126;DHT22;71668;51.400;6.758;2023-12-28T17:10:29;11.80;99.90